Time;durP1;ratioP1;P1;durP2;ratioP2;P2;SDS_P1;SDS_P2;PMS_P1;PMS_P2;Temp;Humidity;BMP_temperature;BMP_pressure;BME280_temperature;BME280_humidity;BME280_pressure;Samples;Min_cycle;Max_cycle;Signal;HPM_P1;HPM_P2
2023/08/27 00:03:14;;;;;;;22.67;16.83;;;;;;;;;;10501035;28;20414;-90
2023/08/27 00:08:17;;;;;;;26.00;17.73;;;;;;;;;;10498866;28;20807;-89
2023/08/27 00:13:20;;;;;;;23.30;17.90;;;;;;;;;;10500726;28;21055;-90
2023/08/27 00:18:23;;;;;;;21.70;17.05;;;;;;;;;;10496940;28;20929;-90
2023/08/27 00:23:25;;;;;;;21.70;16.80;;;;;;;;;;10490903;28;20476;-90
2023/08/27 00:28:29;;;;;;;24.20;16.20;;;;;;;;;;10490876;28;20410;-91
2023/08/27 00:33:32;;;;;;;21.00;16.57;;;;;;;;;;10493895;28;20414;-89
2023/08/27 00:38:34;;;;;;;22.30;15.90;;;;;;;;;;10490343;28;20919;-90
2023/08/27 00:43:40;;;;;;;20.02;15.95;;;;;;;;;;10493333;28;20410;-89
2023/08/27 00:48:42;;;;;;;21.33;16.40;;;;;;;;;;10494148;28;20406;-90
2023/08/27 00:53:44;;;;;;;19.33;15.73;;;;;;;;;;10492077;28;20440;-90
2023/08/27 00:58:48;;;;;;;22.13;16.02;;;;;;;;;;10489692;28;20516;-90
2023/08/27 01:03:50;;;;;;;19.87;15.63;;;;;;;;;;10489482;28;20406;-89
2023/08/27 01:08:59;;;;;;;21.23;16.17;;;;;;;;;;10488771;28;20406;-90
2023/08/27 01:14:05;;;;;;;21.53;15.47;;;;;;;;;;10488288;28;20498;-90
2023/08/27 01:19:14;;;;;;;18.45;14.45;;;;;;;;;;10492038;28;20894;-90
2023/08/27 01:24:18;;;;;;;19.60;14.50;;;;;;;;;;10490033;28;20495;-90
2023/08/27 01:29:25;;;;;;;18.63;14.10;;;;;;;;;;10485225;28;20951;-90
2023/08/27 01:34:30;;;;;;;18.73;14.00;;;;;;;;;;10489723;28;20455;-90
2023/08/27 01:39:33;;;;;;;18.05;14.05;;;;;;;;;;10490622;28;20426;-90
2023/08/27 01:44:36;;;;;;;16.00;13.63;;;;;;;;;;10490108;28;20468;-89
2023/08/27 01:49:39;;;;;;;20.48;14.25;;;;;;;;;;10491779;28;20436;-90
2023/08/27 01:54:42;;;;;;;16.85;13.55;;;;;;;;;;10489526;28;20507;-90
2023/08/27 01:59:45;;;;;;;14.73;12.83;;;;;;;;;;10480921;28;20453;-90
2023/08/27 02:04:47;;;;;;;15.40;12.70;;;;;;;;;;10491436;28;20471;-90
2023/08/27 02:09:50;;;;;;;17.05;13.65;;;;;;;;;;10490693;28;20410;-90
2023/08/27 02:14:53;;;;;;;15.90;13.23;;;;;;;;;;10487991;28;20414;-90
2023/08/27 02:19:55;;;;;;;18.60;14.03;;;;;;;;;;10489962;28;20461;-90
2023/08/27 02:24:59;;;;;;;16.33;13.70;;;;;;;;;;10489478;28;20495;-89
2023/08/27 02:30:01;;;;;;;20.23;14.75;;;;;;;;;;10488648;28;20418;-90
2023/08/27 02:35:03;;;;;;;18.35;14.68;;;;;;;;;;10490021;28;20758;-91
2023/08/27 02:40:08;;;;;;;20.48;15.07;;;;;;;;;;10487015;28;20976;-88
2023/08/27 02:45:11;;;;;;;22.40;15.97;;;;;;;;;;10487673;28;20893;-89
2023/08/27 02:50:13;;;;;;;19.27;14.50;;;;;;;;;;10486345;28;20406;-91
2023/08/27 02:55:17;;;;;;;18.07;14.13;;;;;;;;;;10488987;28;20418;-90
2023/08/27 03:00:19;;;;;;;17.52;13.65;;;;;;;;;;10488034;28;20468;-91
2023/08/27 03:05:22;;;;;;;16.42;14.23;;;;;;;;;;10485338;28;20406;-90
2023/08/27 03:10:25;;;;;;;17.57;13.83;;;;;;;;;;10489293;28;20432;-89
2023/08/27 03:15:28;;;;;;;15.38;12.82;;;;;;;;;;10486237;28;20414;-90
2023/08/27 03:20:30;;;;;;;18.20;13.45;;;;;;;;;;10488109;28;20422;-90
2023/08/27 03:25:34;;;;;;;19.85;14.00;;;;;;;;;;10488373;28;20959;-90
2023/08/27 03:30:36;;;;;;;16.57;13.00;;;;;;;;;;10483471;28;20410;-88
2023/08/27 03:35:39;;;;;;;16.53;13.23;;;;;;;;;;10488431;28;20406;-91
2023/08/27 03:40:48;;;;;;;18.83;13.23;;;;;;;;;;10487317;28;20430;-90
2023/08/27 03:45:50;;;;;;;13.53;11.93;;;;;;;;;;10481191;28;20440;-90
2023/08/27 03:50:52;;;;;;;14.50;11.83;;;;;;;;;;10487885;28;20770;-90
2023/08/27 03:55:56;;;;;;;13.93;11.40;;;;;;;;;;10487302;28;20410;-90
2023/08/27 04:00:58;;;;;;;15.43;12.30;;;;;;;;;;10491644;28;20827;-90
2023/08/27 04:06:01;;;;;;;14.68;12.00;;;;;;;;;;10495771;28;21087;-89
2023/08/27 04:11:05;;;;;;;14.90;11.65;;;;;;;;;;10491829;28;20409;-90
2023/08/27 04:16:09;;;;;;;13.70;11.75;;;;;;;;;;10491750;28;20406;-90
2023/08/27 04:21:11;;;;;;;15.33;12.57;;;;;;;;;;10494420;28;20426;-90
2023/08/27 04:26:15;;;;;;;15.43;12.27;;;;;;;;;;10495002;28;20487;-90
2023/08/27 04:31:17;;;;;;;15.18;12.02;;;;;;;;;;10492687;28;20771;-90
2023/08/27 04:36:20;;;;;;;19.02;12.95;;;;;;;;;;10497413;28;20406;-87
2023/08/27 04:41:23;;;;;;;15.88;13.20;;;;;;;;;;10490425;28;20511;-88
2023/08/27 04:46:26;;;;;;;17.50;13.07;;;;;;;;;;10486868;28;20463;-88
2023/08/27 04:51:29;;;;;;;18.50;13.77;;;;;;;;;;10492981;28;20788;-88
2023/08/27 04:56:33;;;;;;;18.17;13.98;;;;;;;;;;10490191;28;20471;-87
2023/08/27 05:01:35;;;;;;;16.17;13.32;;;;;;;;;;10490893;28;20422;-88
2023/08/27 05:06:37;;;;;;;14.82;12.73;;;;;;;;;;10488175;28;20406;-89
2023/08/27 05:11:41;;;;;;;15.40;12.90;;;;;;;;;;10491665;28;20475;-87
2023/08/27 05:16:44;;;;;;;17.23;13.02;;;;;;;;;;10486444;28;20751;-88
2023/08/27 05:21:46;;;;;;;18.25;13.45;;;;;;;;;;10490632;28;20454;-88
2023/08/27 05:26:50;;;;;;;16.52;12.38;;;;;;;;;;10491963;28;20410;-88
2023/08/27 05:31:52;;;;;;;18.02;14.00;;;;;;;;;;10489471;28;20418;-88
2023/08/27 05:36:55;;;;;;;16.23;12.95;;;;;;;;;;10490872;28;20421;-88
2023/08/27 05:41:59;;;;;;;16.30;12.85;;;;;;;;;;10483870;28;20424;-88
2023/08/27 05:47:01;;;;;;;18.90;13.67;;;;;;;;;;10490695;28;20422;-87
2023/08/27 05:52:04;;;;;;;17.97;12.90;;;;;;;;;;10488666;28;20916;-88
2023/08/27 05:57:07;;;;;;;15.40;12.20;;;;;;;;;;10470352;28;20410;-88
2023/08/27 06:02:10;;;;;;;14.85;12.68;;;;;;;;;;10485303;28;20530;-88
2023/08/27 06:07:12;;;;;;;15.53;12.07;;;;;;;;;;10484563;28;20465;-87
2023/08/27 06:12:16;;;;;;;14.67;11.43;;;;;;;;;;10488908;28;20425;-88
2023/08/27 06:17:18;;;;;;;13.98;11.93;;;;;;;;;;10487585;28;20414;-88
2023/08/27 06:22:21;;;;;;;14.40;11.70;;;;;;;;;;10489856;28;20770;-87
2023/08/27 06:27:25;;;;;;;13.85;11.70;;;;;;;;;;10485350;28;20867;-88
2023/08/27 06:32:28;;;;;;;14.13;10.80;;;;;;;;;;10485576;28;20406;-87
2023/08/27 06:37:30;;;;;;;14.93;11.25;;;;;;;;;;10485312;28;20958;-87
2023/08/27 06:42:34;;;;;;;13.02;10.95;;;;;;;;;;10488196;28;20426;-87
2023/08/27 06:47:36;;;;;;;14.02;10.82;;;;;;;;;;10480515;28;21074;-87
2023/08/27 06:52:39;;;;;;;11.07;9.88;;;;;;;;;;10488584;28;20894;-88
2023/08/27 06:57:43;;;;;;;13.52;10.73;;;;;;;;;;10482780;28;20478;-87
2023/08/27 07:02:45;;;;;;;12.23;10.90;;;;;;;;;;10482996;28;20522;-87
2023/08/27 07:07:48;;;;;;;14.07;10.68;;;;;;;;;;10488625;28;20399;-91
2023/08/27 07:12:52;;;;;;;11.27;9.90;;;;;;;;;;10490978;28;20410;-90
2023/08/27 07:17:54;;;;;;;11.95;9.75;;;;;;;;;;10490832;28;20484;-92
2023/08/27 07:22:56;;;;;;;11.35;9.93;;;;;;;;;;10489949;28;20450;-92
2023/08/27 07:28:00;;;;;;;11.23;9.93;;;;;;;;;;10488821;28;20463;-87
2023/08/27 07:33:03;;;;;;;12.57;10.50;;;;;;;;;;10493940;28;20486;-88
2023/08/27 07:38:05;;;;;;;11.10;9.87;;;;;;;;;;10495462;28;20406;-89
2023/08/27 07:43:09;;;;;;;11.33;9.90;;;;;;;;;;10494886;28;20469;-89
2023/08/27 07:48:11;;;;;;;12.13;9.63;;;;;;;;;;10485656;28;20489;-89
2023/08/27 07:53:14;;;;;;;11.63;9.95;;;;;;;;;;10488744;28;20410;-88
2023/08/27 07:58:18;;;;;;;14.85;10.77;;;;;;;;;;10489511;28;20405;-88
2023/08/27 08:03:20;;;;;;;10.70;9.60;;;;;;;;;;10484680;28;20449;-88
2023/08/27 08:08:23;;;;;;;12.20;9.90;;;;;;;;;;10495482;28;20410;-92
2023/08/27 08:13:27;;;;;;;12.68;9.93;;;;;;;;;;10495527;28;20410;-90
2023/08/27 08:18:30;;;;;;;12.48;9.98;;;;;;;;;;10490466;28;20882;-88
2023/08/27 08:23:32;;;;;;;13.35;10.50;;;;;;;;;;10483266;28;20497;-88
2023/08/27 08:28:36;;;;;;;14.02;10.88;;;;;;;;;;10493614;28;21023;-89
2023/08/27 08:33:38;;;;;;;11.83;10.37;;;;;;;;;;10488187;28;20410;-90
2023/08/27 08:38:41;;;;;;;12.80;11.27;;;;;;;;;;10490524;28;20414;-89
2023/08/27 08:43:49;;;;;;;11.77;10.05;;;;;;;;;;10488031;28;20878;-89
2023/08/27 08:48:53;;;;;;;12.93;10.47;;;;;;;;;;10479015;28;20823;-89
2023/08/27 08:53:59;;;;;;;12.02;10.43;;;;;;;;;;10491843;28;20487;-89
2023/08/27 08:59:05;;;;;;;11.75;10.43;;;;;;;;;;10487256;28;20424;-94
2023/08/27 09:04:08;;;;;;;12.27;10.52;;;;;;;;;;10476537;28;20473;-88
2023/08/27 09:09:10;;;;;;;13.52;10.32;;;;;;;;;;10484216;28;20486;-89
2023/08/27 09:14:15;;;;;;;13.73;10.75;;;;;;;;;;10483649;28;20479;-89
2023/08/27 09:19:17;;;;;;;14.45;10.85;;;;;;;;;;10482548;28;20418;-88
2023/08/27 09:24:20;;;;;;;12.73;10.98;;;;;;;;;;10485663;28;20445;-88
2023/08/27 09:29:27;;;;;;;12.05;10.48;;;;;;;;;;10473670;28;20447;-88
2023/08/27 09:34:29;;;;;;;12.90;10.53;;;;;;;;;;10478190;28;20494;-87
2023/08/27 09:39:32;;;;;;;12.87;10.53;;;;;;;;;;10481032;28;20975;-87
2023/08/27 09:44:35;;;;;;;11.83;10.60;;;;;;;;;;10475553;28;20453;-87
2023/08/27 09:49:41;;;;;;;12.38;10.40;;;;;;;;;;10477050;28;20475;-89
2023/08/27 09:54:43;;;;;;;12.40;10.90;;;;;;;;;;10480317;28;20438;-88
2023/08/27 09:59:49;;;;;;;11.60;10.40;;;;;;;;;;10483236;28;20406;-89
2023/08/27 10:04:54;;;;;;;12.02;10.75;;;;;;;;;;10479395;28;20438;-89
2023/08/27 10:09:56;;;;;;;11.60;10.40;;;;;;;;;;10485482;28;20503;-89
2023/08/27 10:15:00;;;;;;;12.07;10.60;;;;;;;;;;10487699;28;20402;-90
2023/08/27 10:20:04;;;;;;;14.80;10.87;;;;;;;;;;10488364;28;20851;-89
2023/08/27 10:25:08;;;;;;;12.18;10.57;;;;;;;;;;10489246;28;20402;-90
2023/08/27 10:30:13;;;;;;;11.57;10.20;;;;;;;;;;10482518;28;20418;-89
2023/08/27 10:35:16;;;;;;;13.43;10.85;;;;;;;;;;10484896;28;20963;-88
2023/08/27 10:40:18;;;;;;;11.90;10.65;;;;;;;;;;10489362;28;21068;-90
2023/08/27 10:45:27;;;;;;;11.15;10.05;;;;;;;;;;10486510;28;20464;-90
2023/08/27 10:50:43;;;;;;;10.52;9.43;;;;;;;;;;10483786;28;20406;-89
2023/08/27 10:55:50;;;;;;;13.47;10.60;;;;;;;;;;10482445;28;20418;-89
2023/08/27 11:01:07;;;;;;;13.50;9.88;;;;;;;;;;10484397;28;20457;-90
2023/08/27 11:06:13;;;;;;;13.37;10.07;;;;;;;;;;10488267;28;20410;-89
2023/08/27 11:11:16;;;;;;;13.35;9.77;;;;;;;;;;10487989;28;20451;-88
2023/08/27 11:16:19;;;;;;;13.57;8.93;;;;;;;;;;10485137;28;20463;-88
2023/08/27 11:21:41;;;;;;;12.30;9.48;;;;;;;;;;10488267;28;20418;-89
2023/08/27 11:26:44;;;;;;;11.38;8.35;;;;;;;;;;10485927;28;20432;-89
2023/08/27 11:31:48;;;;;;;9.30;7.97;;;;;;;;;;10485243;28;20438;-89
2023/08/27 11:36:54;;;;;;;9.48;8.15;;;;;;;;;;10487626;28;20402;-89
2023/08/27 11:41:57;;;;;;;7.88;6.55;;;;;;;;;;10487931;28;20418;-89
2023/08/27 11:47:06;;;;;;;8.10;6.45;;;;;;;;;;10485953;28;20463;-89
2023/08/27 11:52:08;;;;;;;9.90;7.37;;;;;;;;;;10484173;28;21092;-89
2023/08/27 11:57:11;;;;;;;8.90;6.90;;;;;;;;;;10484004;28;20410;-89
2023/08/27 12:02:15;;;;;;;7.88;6.50;;;;;;;;;;10482062;28;20460;-89
2023/08/27 12:07:26;;;;;;;8.90;7.17;;;;;;;;;;10486918;28;20495;-89
2023/08/27 12:12:28;;;;;;;8.90;7.90;;;;;;;;;;10487369;28;20471;-89
2023/08/27 12:17:37;;;;;;;9.02;8.13;;;;;;;;;;10485590;28;20444;-90
2023/08/27 12:22:43;;;;;;;10.20;8.68;;;;;;;;;;10494236;28;20465;-89
2023/08/27 12:27:45;;;;;;;13.17;10.33;;;;;;;;;;10494414;28;20414;-90
2023/08/27 12:32:55;;;;;;;14.00;10.33;;;;;;;;;;10489197;28;20473;-89
2023/08/27 12:37:58;;;;;;;12.93;10.13;;;;;;;;;;10493818;28;20402;-89
2023/08/27 12:43:00;;;;;;;12.67;10.30;;;;;;;;;;10494349;28;21138;-89
2023/08/27 12:48:05;;;;;;;13.60;10.40;;;;;;;;;;10486940;28;20464;-88
2023/08/27 12:53:08;;;;;;;12.10;10.20;;;;;;;;;;10493566;28;20472;-89
2023/08/27 12:58:10;;;;;;;10.98;9.88;;;;;;;;;;10496088;22;20416;-96
2023/08/27 13:03:14;;;;;;;11.98;9.85;;;;;;;;;;10453713;28;20446;-96
2023/08/27 13:08:17;;;;;;;13.43;10.27;;;;;;;;;;10459738;28;20446;-96
2023/08/27 13:13:20;;;;;;;11.80;10.38;;;;;;;;;;10463093;28;20403;-96
2023/08/27 13:18:24;;;;;;;10.73;9.70;;;;;;;;;;10451045;28;20399;-96
2023/08/27 13:23:26;;;;;;;12.98;10.30;;;;;;;;;;10467217;28;20454;-96
2023/08/27 13:28:29;;;;;;;12.32;10.25;;;;;;;;;;10454668;28;20463;-96
2023/08/27 13:33:33;;;;;;;11.63;10.07;;;;;;;;;;10458420;28;20416;-96
2023/08/27 13:38:35;;;;;;;10.55;9.55;;;;;;;;;;10454473;28;20955;-96
2023/08/27 13:43:38;;;;;;;12.15;10.20;;;;;;;;;;10462429;28;20417;-96
2023/08/27 13:48:42;;;;;;;13.68;10.45;;;;;;;;;;10456024;28;20450;-96
2023/08/27 13:53:45;;;;;;;11.88;10.68;;;;;;;;;;10463440;28;20444;-96
2023/08/27 13:58:47;;;;;;;11.60;10.40;;;;;;;;;;10454731;28;20485;-96
2023/08/27 14:03:51;;;;;;;12.55;11.25;;;;;;;;;;10462020;28;20486;-96
2023/08/27 14:08:54;;;;;;;13.07;10.47;;;;;;;;;;10459629;28;20423;-96
2023/08/27 14:13:57;;;;;;;12.00;10.50;;;;;;;;;;10458275;28;20408;-96
2023/08/27 14:19:01;;;;;;;13.13;10.85;;;;;;;;;;10451822;28;20879;-96
2023/08/27 14:24:04;;;;;;;13.60;11.10;;;;;;;;;;10465726;28;20477;-96
2023/08/27 14:29:07;;;;;;;13.20;10.32;;;;;;;;;;10458804;28;20415;-96
2023/08/27 14:34:11;;;;;;;13.10;10.50;;;;;;;;;;10464969;28;21141;-96
2023/08/27 14:39:14;;;;;;;13.77;10.90;;;;;;;;;;10433824;28;20860;-89
2023/08/27 14:44:17;;;;;;;12.70;10.77;;;;;;;;;;10433879;28;20436;-91
2023/08/27 14:49:22;;;;;;;11.63;9.20;;;;;;;;;;10439093;28;20933;-90
2023/08/27 14:54:25;;;;;;;10.00;8.80;;;;;;;;;;10421629;28;20461;-90
2023/08/27 14:59:39;;;;;;;12.03;9.00;;;;;;;;;;10438456;28;20404;-90
2023/08/27 15:04:43;;;;;;;12.07;8.93;;;;;;;;;;10450118;28;20828;-95
2023/08/27 15:09:47;;;;;;;13.18;9.60;;;;;;;;;;10440438;28;20430;-94
2023/08/27 15:14:50;;;;;;;12.07;9.50;;;;;;;;;;10453577;28;21137;-95
2023/08/27 15:19:54;;;;;;;13.98;9.38;;;;;;;;;;10447362;28;20751;-96
2023/08/27 15:24:57;;;;;;;14.07;9.83;;;;;;;;;;10439853;28;20511;-96
2023/08/27 15:30:00;;;;;;;12.02;9.48;;;;;;;;;;10437798;28;20416;-90
2023/08/27 15:35:05;;;;;;;10.25;9.15;;;;;;;;;;10424211;28;20800;-90
2023/08/27 15:40:08;;;;;;;12.82;8.93;;;;;;;;;;10431056;28;20424;-91
2023/08/27 15:45:10;;;;;;;10.45;9.10;;;;;;;;;;10424559;28;20458;-90
2023/08/27 15:50:14;;;;;;;10.18;8.45;;;;;;;;;;10430656;28;20427;-91
2023/08/27 15:55:17;;;;;;;13.05;9.40;;;;;;;;;;10432452;28;20432;-90
2023/08/27 16:00:19;;;;;;;9.55;8.13;;;;;;;;;;10433021;28;20412;-91
2023/08/27 16:05:23;;;;;;;8.93;7.88;;;;;;;;;;10420094;28;20419;-91
2023/08/27 16:10:26;;;;;;;11.23;8.30;;;;;;;;;;10447273;28;20473;-91
2023/08/27 16:15:28;;;;;;;10.23;8.43;;;;;;;;;;10435733;28;20475;-91
2023/08/27 16:20:32;;;;;;;9.73;8.57;;;;;;;;;;10427222;28;21057;-91
2023/08/27 16:25:37;;;;;;;10.60;8.43;;;;;;;;;;10427392;28;21325;-92
2023/08/27 16:30:40;;;;;;;10.18;8.68;;;;;;;;;;10424538;28;20407;-90
2023/08/27 16:35:43;;;;;;;9.77;8.43;;;;;;;;;;10421489;28;20770;-91
2023/08/27 16:40:46;;;;;;;11.07;8.37;;;;;;;;;;10440510;28;20449;-91
2023/08/27 16:45:56;;;;;;;11.23;7.85;;;;;;;;;;10427513;28;20617;-91
2023/08/27 16:51:00;;;;;;;10.05;8.15;;;;;;;;;;10420877;28;20461;-91
2023/08/27 16:56:02;;;;;;;10.33;8.00;;;;;;;;;;10431587;28;20417;-90
2023/08/27 17:01:05;;;;;;;9.97;8.40;;;;;;;;;;10436181;28;20464;-91
2023/08/27 17:06:08;;;;;;;9.82;8.15;;;;;;;;;;10429588;28;21022;-91
2023/08/27 17:11:11;;;;;;;9.75;8.05;;;;;;;;;;10431734;28;20491;-91
2023/08/27 17:16:13;;;;;;;10.88;9.00;;;;;;;;;;10428664;28;20487;-90
2023/08/27 17:21:17;;;;;;;10.18;8.65;;;;;;;;;;10433163;28;20471;-88
2023/08/27 17:26:19;;;;;;;11.10;9.13;;;;;;;;;;10421584;28;20483;-90
2023/08/27 17:31:22;;;;;;;11.77;8.85;;;;;;;;;;10434559;28;20413;-90
2023/08/27 17:36:26;;;;;;;11.77;9.47;;;;;;;;;;10432051;28;20469;-89
2023/08/27 17:41:50;;;;;;;12.68;9.75;;;;;;;;;;10438965;28;20415;-79
2023/08/27 17:46:52;;;;;;;12.30;10.53;;;;;;;;;;10438031;28;20982;-90
2023/08/27 17:51:56;;;;;;;12.53;10.40;;;;;;;;;;10453416;28;20487;-87
2023/08/27 17:56:59;;;;;;;15.10;10.68;;;;;;;;;;10416931;28;20472;-88
2023/08/27 18:02:01;;;;;;;14.05;10.40;;;;;;;;;;10436104;28;20413;-88
2023/08/27 18:07:06;;;;;;;12.35;11.00;;;;;;;;;;10432768;28;20855;-88
2023/08/27 18:12:08;;;;;;;15.77;11.25;;;;;;;;;;10433469;28;20411;-88
2023/08/27 18:17:10;;;;;;;13.75;10.40;;;;;;;;;;10427784;28;20414;-89
2023/08/27 18:22:14;;;;;;;13.77;10.87;;;;;;;;;;10431144;28;20422;-89
2023/08/27 18:27:16;;;;;;;14.48;11.32;;;;;;;;;;10423357;28;20449;-90
2023/08/27 18:32:19;;;;;;;15.70;11.23;;;;;;;;;;10429083;28;20389;-88
2023/08/27 18:37:22;;;;;;;13.50;11.20;;;;;;;;;;10432502;28;20413;-89
2023/08/27 18:42:25;;;;;;;14.20;10.80;;;;;;;;;;10434912;28;20906;-88
2023/08/27 18:47:27;;;;;;;15.30;9.97;;;;;;;;;;10424616;28;20432;-88
2023/08/27 18:52:31;;;;;;;12.13;9.17;;;;;;;;;;10433656;28;20418;-89
2023/08/27 18:57:35;;;;;;;14.38;8.55;;;;;;;;;;10446278;28;20481;-89
2023/08/27 19:02:37;;;;;;;10.93;8.67;;;;;;;;;;10441592;28;20419;-89
2023/08/27 19:07:41;;;;;;;12.35;8.10;;;;;;;;;;10445798;28;20787;-89
2023/08/27 19:12:44;;;;;;;11.25;7.63;;;;;;;;;;10440323;28;20434;-88
2023/08/27 19:17:46;;;;;;;10.45;8.05;;;;;;;;;;10429507;28;20402;-88
2023/08/27 19:22:53;;;;;;;10.23;7.57;;;;;;;;;;10433706;28;20768;-88
2023/08/27 19:27:55;;;;;;;11.20;8.63;;;;;;;;;;10449349;28;20411;-88
2023/08/27 19:32:58;;;;;;;10.80;7.87;;;;;;;;;;10442080;28;20464;-88
2023/08/27 19:38:05;;;;;;;10.70;7.90;;;;;;;;;;10448390;28;20415;-89
2023/08/27 19:43:08;;;;;;;9.10;7.60;;;;;;;;;;10446912;28;20471;-89
2023/08/27 19:48:10;;;;;;;11.07;7.93;;;;;;;;;;10437924;28;20415;-88
2023/08/27 19:53:14;;;;;;;10.70;8.37;;;;;;;;;;10447691;28;20430;-89
2023/08/27 19:58:16;;;;;;;11.35;7.60;;;;;;;;;;10440331;28;20403;-89
2023/08/27 20:03:18;;;;;;;9.88;7.50;;;;;;;;;;10455019;28;20477;-88
2023/08/27 20:08:22;;;;;;;10.07;7.77;;;;;;;;;;10446607;28;20852;-88
2023/08/27 20:13:26;;;;;;;11.88;7.60;;;;;;;;;;10455746;28;20412;-90
2023/08/27 20:18:28;;;;;;;12.93;8.40;;;;;;;;;;10451554;28;20428;-88
2023/08/27 20:23:32;;;;;;;11.05;8.32;;;;;;;;;;10449004;28;20424;-89
2023/08/27 20:28:34;;;;;;;12.80;8.90;;;;;;;;;;10446864;28;20412;-88
2023/08/27 20:33:37;;;;;;;12.77;9.30;;;;;;;;;;10447069;28;20404;-89
2023/08/27 20:38:40;;;;;;;12.03;9.07;;;;;;;;;;10445405;28;20411;-89
2023/08/27 20:43:45;;;;;;;12.43;9.75;;;;;;;;;;10446999;28;20506;-89
2023/08/27 20:48:47;;;;;;;16.27;10.00;;;;;;;;;;10440391;28;20455;-88
2023/08/27 20:53:51;;;;;;;12.10;9.90;;;;;;;;;;10444926;28;20511;-89
2023/08/27 20:58:53;;;;;;;12.02;10.40;;;;;;;;;;10447556;28;20414;-89
2023/08/27 21:03:55;;;;;;;13.63;10.57;;;;;;;;;;10447433;28;20424;-89
2023/08/27 21:09:02;;;;;;;13.93;11.00;;;;;;;;;;10452521;28;20401;-89
2023/08/27 21:14:05;;;;;;;13.70;11.10;;;;;;;;;;10441037;28;20412;-88
2023/08/27 21:19:07;;;;;;;16.52;11.25;;;;;;;;;;10452578;28;20877;-88
2023/08/27 21:24:13;;;;;;;14.43;11.18;;;;;;;;;;10452070;28;20415;-88
2023/08/27 21:29:15;;;;;;;14.82;10.93;;;;;;;;;;10451011;28;20477;-89
2023/08/27 21:34:18;;;;;;;11.70;10.27;;;;;;;;;;10442110;28;20770;-89
2023/08/27 21:39:21;;;;;;;15.18;11.25;;;;;;;;;;10442527;28;20440;-89
2023/08/27 21:44:24;;;;;;;13.05;10.68;;;;;;;;;;10444166;28;20511;-89
2023/08/27 21:49:26;;;;;;;14.88;11.18;;;;;;;;;;10439528;28;20456;-89
2023/08/27 21:54:30;;;;;;;15.23;11.07;;;;;;;;;;10441678;28;20780;-89
2023/08/27 21:59:32;;;;;;;14.65;11.10;;;;;;;;;;10444932;28;20416;-89
2023/08/27 22:04:35;;;;;;;15.57;11.57;;;;;;;;;;10440491;28;20929;-88
2023/08/27 22:09:38;;;;;;;16.60;11.02;;;;;;;;;;10454276;28;20438;-88
2023/08/27 22:14:42;;;;;;;15.70;11.50;;;;;;;;;;10445125;28;20465;-88
2023/08/27 22:19:44;;;;;;;15.63;11.57;;;;;;;;;;10444762;28;20871;-88
2023/08/27 22:24:48;;;;;;;17.27;11.55;;;;;;;;;;10446199;28;20460;-88
2023/08/27 22:29:50;;;;;;;20.73;12.57;;;;;;;;;;10445520;28;20409;-88
2023/08/27 22:34:55;;;;;;;15.57;10.97;;;;;;;;;;10432569;28;20405;-89
2023/08/27 22:39:58;;;;;;;13.40;10.23;;;;;;;;;;10437053;28;20441;-89
2023/08/27 22:45:01;;;;;;;12.73;10.52;;;;;;;;;;10455180;28;20479;-94
2023/08/27 22:50:04;;;;;;;19.92;17.90;;;;;;;;;;10433405;28;20828;-89
2023/08/27 22:55:09;;;;;;;15.37;10.40;;;;;;;;;;10435698;28;20473;-90
2023/08/27 23:00:12;;;;;;;14.63;11.15;;;;;;;;;;10432311;28;20467;-85
2023/08/27 23:05:15;;;;;;;13.27;10.38;;;;;;;;;;10432134;28;20516;-81
2023/08/27 23:10:18;;;;;;;12.13;9.60;;;;;;;;;;10434148;28;20401;-87
2023/08/27 23:15:21;;;;;;;13.03;10.03;;;;;;;;;;10432221;28;20477;-87
2023/08/27 23:20:24;;;;;;;11.30;9.53;;;;;;;;;;10432762;28;20905;-86
2023/08/27 23:25:28;;;;;;;12.23;9.15;;;;;;;;;;10437709;28;20477;-86
2023/08/27 23:30:30;;;;;;;12.02;8.15;;;;;;;;;;10435886;28;20424;-86
2023/08/27 23:35:34;;;;;;;11.63;8.82;;;;;;;;;;10433795;28;20827;-86
2023/08/27 23:40:38;;;;;;;12.35;8.20;;;;;;;;;;10440752;28;20458;-87
2023/08/27 23:45:43;;;;;;;11.17;8.30;;;;;;;;;;10437698;28;20411;-87
2023/08/27 23:50:45;;;;;;;9.50;8.00;;;;;;;;;;10427143;28;20396;-86
2023/08/27 23:55:49;;;;;;;12.95;8.32;;;;;;;;;;10435775;28;20951;-86
